Time;durP1;ratioP1;P1;durP2;ratioP2;P2;SDS_P1;SDS_P2;PMS_P1;PMS_P2;Temp;Humidity;BMP_temperature;BMP_pressure;BME280_temperature;BME280_humidity;BME280_pressure;Samples;Min_cycle;Max_cycle;Signal;HPM_P1;HPM_P2
2021/03/31 00:00:19;;;;;;;33.95;23.80;;;;;;;8.91;79.58;97267.22;5015535;28;20493;-58
2021/03/31 00:02:49;;;;;;;32.30;23.10;;;;;;;8.84;80.19;97275.16;5048864;28;20069;-58
2021/03/31 00:05:16;;;;;;;33.53;24.15;;;;;;;8.72;80.38;97266.31;5015975;28;20996;-58
2021/03/31 00:07:43;;;;;;;29.73;20.08;;;;;;;8.63;81.09;97267.56;5054589;28;20057;-58
2021/03/31 00:10:16;;;;;;;20.27;17.15;;;;;;;8.54;80.58;97265.19;5003559;28;20053;-58
2021/03/31 00:12:43;;;;;;;22.45;18.02;;;;;;;8.42;81.27;97264.97;5018401;28;20049;-58
2021/03/31 00:15:11;;;;;;;27.83;18.95;;;;;;;8.35;81.50;97271.28;5024168;28;20727;-58
2021/03/31 00:17:39;;;;;;;28.85;20.40;;;;;;;8.28;81.19;97266.03;5020925;28;20036;-58
2021/03/31 00:20:07;;;;;;;29.85;21.23;;;;;;;8.27;81.37;97265.25;5001697;28;20041;-59
2021/03/31 00:22:34;;;;;;;27.92;20.83;;;;;;;8.22;81.50;97262.41;5051317;28;20393;-58
2021/03/31 00:25:03;;;;;;;30.58;20.65;;;;;;;8.15;82.00;97259.81;5031714;28;20053;-58
2021/03/31 00:27:30;;;;;;;25.77;19.55;;;;;;;8.15;81.65;97256.38;5029655;28;20053;-58
2021/03/31 00:29:57;;;;;;;34.00;20.55;;;;;;;8.02;81.66;97262.47;5018405;28;20701;-58
2021/03/31 00:32:25;;;;;;;32.30;21.80;;;;;;;7.90;81.10;97258.84;5016692;28;20056;-58
2021/03/31 00:34:52;;;;;;;32.70;22.65;;;;;;;7.90;82.42;97258.84;5016099;28;20058;-63
2021/03/31 00:37:19;;;;;;;26.33;19.10;;;;;;;7.84;82.46;97260.47;5051977;28;20045;-59
2021/03/31 00:39:47;;;;;;;31.02;22.75;;;;;;;7.81;82.57;97250.41;5017282;28;20061;-58
2021/03/31 00:42:14;;;;;;;30.20;20.30;;;;;;;7.80;83.02;97252.22;5035815;28;20050;-58
2021/03/31 00:44:41;;;;;;;24.73;20.63;;;;;;;7.79;82.50;97244.53;5016883;28;20053;-62
2021/03/31 00:47:09;;;;;;;28.15;22.08;;;;;;;7.74;82.35;97244.34;5008528;28;20049;-58
2021/03/31 00:49:36;;;;;;;28.35;19.63;;;;;;;7.69;82.93;97253.63;5017053;28;20053;-59
2021/03/31 00:52:05;;;;;;;27.33;19.65;;;;;;;7.70;82.37;97247.38;5007762;28;20417;-58
2021/03/31 00:54:33;;;;;;;31.73;19.60;;;;;;;7.63;82.32;97249.19;5028259;28;20320;-58
2021/03/31 00:57:01;;;;;;;24.50;17.15;;;;;;;7.58;82.54;97251.63;5017110;28;20042;-58
2021/03/31 00:59:29;;;;;;;22.58;18.75;;;;;;;7.56;82.73;97251.03;5016494;28;20053;-58
2021/03/31 01:01:57;;;;;;;24.55;17.38;;;;;;;7.51;82.61;97242.94;5019995;28;20068;-58
2021/03/31 01:04:24;;;;;;;23.02;18.70;;;;;;;7.45;82.35;97241.13;5016652;28;20049;-58
2021/03/31 01:06:51;;;;;;;31.92;18.55;;;;;;;7.33;82.34;97246.97;5032822;28;20049;-58
2021/03/31 01:09:19;;;;;;;18.70;15.75;;;;;;;7.27;82.49;97250.41;5031291;28;20417;-58
2021/03/31 01:12:09;;;;;;;28.88;16.65;;;;;;;7.16;82.40;97243.16;5019878;28;20836;-58
2021/03/31 01:15:14;;;;;;;19.10;14.02;;;;;;;7.10;82.00;97246.56;5020835;28;20045;-58
2021/03/31 01:17:51;;;;;;;17.45;13.73;;;;;;;6.97;83.10;97244.72;5018612;28;20044;-58
2021/03/31 01:20:44;;;;;;;14.98;12.52;;;;;;;6.92;82.98;97237.47;5043736;28;20083;-58
2021/03/31 01:23:30;;;;;;;15.75;12.68;;;;;;;6.87;82.97;97239.88;5045105;28;20100;-58
2021/03/31 01:26:00;;;;;;;20.58;14.82;;;;;;;6.82;82.40;97243.09;5009283;28;20045;-57
2021/03/31 01:28:39;;;;;;;17.58;11.88;;;;;;;6.75;82.82;97239.66;5034818;28;20037;-58
2021/03/31 01:31:23;;;;;;;17.15;12.77;;;;;;;6.62;82.67;97240.41;4998085;28;20060;-61
2021/03/31 01:34:20;;;;;;;17.13;13.30;;;;;;;6.50;83.10;97237.56;5015830;28;20520;-58
2021/03/31 01:36:50;;;;;;;17.95;13.38;;;;;;;6.43;83.19;97237.53;5044143;28;20053;-58
2021/03/31 01:39:19;;;;;;;23.25;17.00;;;;;;;6.39;83.43;97230.28;5014457;28;20042;-58
2021/03/31 01:41:49;;;;;;;26.52;18.02;;;;;;;6.29;83.67;97238.47;5022124;28;20049;-58
2021/03/31 01:44:19;;;;;;;27.55;18.08;;;;;;;6.21;84.09;97230.81;5017157;28;20046;-58
2021/03/31 01:46:52;;;;;;;25.33;17.05;;;;;;;6.12;84.84;97232.78;5015414;28;20946;-58
2021/03/31 01:49:22;;;;;;;20.30;16.55;;;;;;;6.06;84.53;97230.91;5010142;28;20741;-58
2021/03/31 01:51:55;;;;;;;22.63;15.73;;;;;;;5.97;84.37;97224.97;5009530;28;20049;-58
2021/03/31 01:54:22;;;;;;;21.13;17.02;;;;;;;5.83;84.42;97232.78;5015467;28;20041;-58
2021/03/31 01:56:52;;;;;;;25.65;18.02;;;;;;;5.72;85.09;97222.03;5015332;28;20053;-58
2021/03/31 01:59:21;;;;;;;27.45;16.63;;;;;;;5.70;85.07;97225.66;5011516;28;20406;-59
2021/03/31 02:01:57;;;;;;;26.48;17.50;;;;;;;5.68;85.89;97225.03;5045653;28;21162;-58
2021/03/31 02:04:25;;;;;;;27.60;20.08;;;;;;;5.71;85.77;97221.25;5007820;28;20065;-59
2021/03/31 02:06:54;;;;;;;20.77;16.05;;;;;;;5.66;85.54;97223.59;5017187;28;20424;-59
2021/03/31 02:09:22;;;;;;;21.23;17.73;;;;;;;5.64;85.61;97230.84;5017705;28;20053;-59
2021/03/31 02:11:51;;;;;;;18.60;16.33;;;;;;;5.60;85.57;97219.94;5031336;28;20067;-58
2021/03/31 02:14:20;;;;;;;21.55;15.52;;;;;;;5.58;85.82;97218.53;4990878;28;20049;-58
2021/03/31 02:16:49;;;;;;;24.67;16.27;;;;;;;5.58;85.84;97218.53;5017041;28;20582;-59
2021/03/31 02:19:19;;;;;;;23.88;17.02;;;;;;;5.54;85.66;97221.53;5035059;28;20049;-59
2021/03/31 02:21:49;;;;;;;22.13;16.25;;;;;;;5.52;86.15;97218.28;5014535;28;20763;-61
2021/03/31 02:24:21;;;;;;;21.33;15.25;;;;;;;5.51;86.32;97214.03;5016360;28;20042;-59
2021/03/31 02:26:49;;;;;;;26.10;18.88;;;;;;;5.46;84.88;97218.22;5043147;28;20072;-58
2021/03/31 02:29:16;;;;;;;25.90;18.17;;;;;;;5.41;85.27;97216.19;5016406;28;20045;-58
2021/03/31 02:31:45;;;;;;;24.50;17.45;;;;;;;5.42;85.72;97217.00;5027459;28;20079;-58
2021/03/31 02:34:14;;;;;;;25.50;18.33;;;;;;;5.41;85.37;97221.44;5016636;28;20413;-58
2021/03/31 02:36:43;;;;;;;28.27;16.73;;;;;;;5.40;85.43;97219.81;5014603;28;20056;-65
2021/03/31 02:39:13;;;;;;;26.67;18.08;;;;;;;5.39;85.73;97226.03;5015215;28;20041;-58
2021/03/31 02:41:46;;;;;;;23.58;17.95;;;;;;;5.34;85.28;97216.13;5007405;28;20049;-58
2021/03/31 02:44:16;;;;;;;28.58;17.67;;;;;;;5.33;84.99;97218.97;5031003;28;20049;-58
2021/03/31 02:46:45;;;;;;;26.35;17.10;;;;;;;5.30;85.41;97220.13;5012516;28;20057;-58
2021/03/31 02:49:13;;;;;;;22.13;16.95;;;;;;;5.21;85.04;97216.03;5018266;28;20512;-58
2021/03/31 02:51:41;;;;;;;25.55;17.38;;;;;;;5.18;85.42;97213.78;5011059;28;20041;-58
2021/03/31 02:54:10;;;;;;;24.23;15.93;;;;;;;5.16;85.66;97214.00;5023317;28;20375;-58
2021/03/31 02:56:40;;;;;;;18.65;15.15;;;;;;;5.12;84.98;97217.16;5016748;28;20049;-57
2021/03/31 02:59:10;;;;;;;20.67;15.55;;;;;;;5.09;85.88;97215.75;5020620;28;20050;-57
2021/03/31 03:01:39;;;;;;;27.73;17.33;;;;;;;5.08;85.26;97219.38;5038865;28;20053;-58
2021/03/31 03:04:08;;;;;;;19.75;15.20;;;;;;;5.04;85.46;97226.78;5046199;28;20057;-58
2021/03/31 03:06:36;;;;;;;24.80;19.13;;;;;;;5.01;85.49;97218.47;4999850;28;20045;-58
2021/03/31 03:09:06;;;;;;;21.40;16.58;;;;;;;4.95;85.37;97220.03;5012911;28;20049;-57
2021/03/31 03:11:35;;;;;;;26.50;17.65;;;;;;;4.95;85.49;97219.25;4988962;28;20065;-58
2021/03/31 03:14:07;;;;;;;22.40;19.17;;;;;;;4.95;85.65;97219.25;5016579;28;20259;-58
2021/03/31 03:16:35;;;;;;;22.65;19.25;;;;;;;4.93;85.76;97220.22;5016527;28;20464;-58
2021/03/31 03:19:04;;;;;;;25.75;19.20;;;;;;;4.88;85.88;97214.75;5047851;28;20042;-58
2021/03/31 03:21:33;;;;;;;26.35;20.02;;;;;;;4.85;85.72;97220.38;5013742;28;20057;-58
2021/03/31 03:24:01;;;;;;;23.60;18.73;;;;;;;4.83;86.44;97219.75;5015719;28;20057;-58
2021/03/31 03:26:28;;;;;;;29.48;20.10;;;;;;;4.85;86.35;97222.16;5033767;28;20398;-59
2021/03/31 03:28:57;;;;;;;32.80;21.67;;;;;;;4.84;85.84;97220.53;5047007;28;20038;-58
2021/03/31 03:31:25;;;;;;;32.95;20.75;;;;;;;4.76;86.01;97226.69;5030148;28;20050;-58
2021/03/31 03:33:53;;;;;;;33.88;21.95;;;;;;;4.71;86.57;97210.78;5013850;28;20053;-58
2021/03/31 03:36:20;;;;;;;32.20;21.88;;;;;;;4.71;86.46;97216.00;5013584;28;21665;-58
2021/03/31 03:38:49;;;;;;;34.22;22.65;;;;;;;4.68;86.31;97218.97;5017674;28;20386;-58
2021/03/31 03:41:16;;;;;;;28.73;20.63;;;;;;;4.66;86.72;97220.97;5032367;28;20628;-57
2021/03/31 03:43:44;;;;;;;38.10;21.02;;;;;;;4.70;86.86;97222.22;4994526;28;20053;-58
2021/03/31 03:46:13;;;;;;;31.92;23.33;;;;;;;4.75;86.91;97217.22;5018052;28;20049;-58
2021/03/31 03:48:40;;;;;;;37.83;24.45;;;;;;;4.76;87.87;97218.84;4995462;28;20046;-58
2021/03/31 03:51:10;;;;;;;33.22;23.45;;;;;;;4.82;88.39;97215.50;5019108;28;20053;-58
2021/03/31 03:53:37;;;;;;;44.22;24.80;;;;;;;4.88;87.62;97214.75;5013358;28;20053;-58
2021/03/31 03:56:12;;;;;;;30.77;21.70;;;;;;;4.91;88.33;97211.75;5017946;28;20068;-57
2021/03/31 03:58:40;;;;;;;34.53;23.93;;;;;;;4.99;88.41;97217.84;5018802;28;20049;-61
2021/03/31 04:01:07;;;;;;;37.17;23.67;;;;;;;5.02;87.90;97212.25;5016976;28;20642;-60
2021/03/31 04:03:35;;;;;;;43.80;23.92;;;;;;;5.01;87.94;97211.47;5012780;28;20064;-58
2021/03/31 04:06:05;;;;;;;35.50;24.00;;;;;;;5.02;87.55;97222.72;5016335;28;20069;-58
2021/03/31 04:08:32;;;;;;;32.75;23.02;;;;;;;5.04;87.49;97220.72;5046739;28;20527;-58
2021/03/31 04:11:00;;;;;;;37.80;22.13;;;;;;;5.09;88.03;97223.59;5012875;28;20143;-58
2021/03/31 04:13:30;;;;;;;34.90;23.15;;;;;;;5.16;87.47;97221.84;5011594;28;20064;-58
2021/03/31 04:16:17;;;;;;;27.02;19.65;;;;;;;5.21;86.63;97222.09;5016487;28;20509;-57
2021/03/31 04:18:47;;;;;;;32.22;20.63;;;;;;;5.14;86.66;97217.78;5016538;28;20056;-58
2021/03/31 04:21:15;;;;;;;31.45;19.77;;;;;;;5.15;87.41;97228.06;5011975;28;20045;-58
2021/03/31 04:23:43;;;;;;;25.50;18.75;;;;;;;5.16;86.82;97224.44;5017474;28;20052;-58
2021/03/31 04:26:13;;;;;;;19.75;16.52;;;;;;;5.20;86.84;97214.41;5018935;28;20060;-58
2021/03/31 04:28:40;;;;;;;22.50;17.08;;;;;;;5.26;86.51;97225.94;5018864;28;20037;-59
2021/03/31 04:31:09;;;;;;;25.33;18.60;;;;;;;5.21;86.37;97224.72;5018341;28;20069;-58
2021/03/31 04:33:37;;;;;;;28.80;19.13;;;;;;;5.24;86.84;97226.91;5014487;28;20068;-58
2021/03/31 04:36:05;;;;;;;30.67;19.80;;;;;;;5.27;87.31;97224.94;5020384;28;20049;-58
2021/03/31 04:38:32;;;;;;;27.38;19.85;;;;;;;5.34;86.54;97224.00;5011746;28;20396;-57
2021/03/31 04:41:01;;;;;;;30.15;19.55;;;;;;;5.40;86.71;97230.28;5013872;28;20068;-57
2021/03/31 04:43:31;;;;;;;28.45;19.05;;;;;;;5.41;85.69;97231.91;5009336;28;20049;-58
2021/03/31 04:46:04;;;;;;;24.08;19.88;;;;;;;5.43;85.69;97224.66;5015813;28;20726;-57
2021/03/31 04:48:32;;;;;;;28.05;19.50;;;;;;;5.49;86.01;97231.75;5029028;28;20048;-57
2021/03/31 04:50:59;;;;;;;34.95;23.80;;;;;;;5.54;86.21;97224.13;5015960;28;20060;-58
2021/03/31 04:53:26;;;;;;;49.63;35.40;;;;;;;5.61;86.23;97231.22;5021893;28;20057;-58
2021/03/31 04:55:54;;;;;;;60.58;45.33;;;;;;;5.72;86.31;97238.56;5049106;28;20041;-58
2021/03/31 04:58:21;;;;;;;56.40;42.53;;;;;;;5.83;86.21;97242.44;5020949;28;20056;-57
2021/03/31 05:00:49;;;;;;;51.47;39.00;;;;;;;5.93;84.87;97235.03;5040522;28;22236;-57
2021/03/31 05:03:16;;;;;;;46.97;40.97;;;;;;;6.03;84.62;97236.56;5019413;28;20089;-57
2021/03/31 05:05:44;;;;;;;46.22;39.53;;;;;;;6.05;84.05;97232.72;5018420;28;20144;-58
2021/03/31 05:08:11;;;;;;;53.22;39.65;;;;;;;6.07;84.59;97235.16;5037478;28;20041;-57
2021/03/31 05:10:39;;;;;;;40.22;30.35;;;;;;;6.16;83.43;97239.22;5013121;28;20055;-58
2021/03/31 05:13:06;;;;;;;43.20;28.55;;;;;;;6.19;82.63;97238.03;5019073;28;20042;-58
2021/03/31 05:15:33;;;;;;;33.80;28.60;;;;;;;6.23;81.84;97231.38;5020665;28;20048;-58
2021/03/31 05:18:01;;;;;;;35.10;27.85;;;;;;;6.23;81.31;97239.25;5019157;28;20062;-57
2021/03/31 05:20:28;;;;;;;36.22;25.10;;;;;;;6.25;80.94;97242.50;5016878;28;20045;-58
2021/03/31 05:22:55;;;;;;;40.72;26.58;;;;;;;6.22;81.46;97246.31;5010540;28;20057;-58
2021/03/31 05:25:23;;;;;;;36.95;27.88;;;;;;;6.23;81.17;97239.25;5016265;28;20053;-57
2021/03/31 05:27:54;;;;;;;43.13;26.30;;;;;;;6.29;80.46;97241.91;5017664;28;20053;-58
2021/03/31 05:30:22;;;;;;;39.05;25.70;;;;;;;6.32;80.79;97245.97;5018593;28;20277;-58
2021/03/31 05:32:50;;;;;;;38.45;27.88;;;;;;;6.29;81.12;97244.53;5019358;28;20068;-58
2021/03/31 05:35:17;;;;;;;42.60;29.52;;;;;;;6.30;81.06;97232.25;5016121;28;20054;-58
2021/03/31 05:37:44;;;;;;;52.72;34.03;;;;;;;6.33;81.13;97238.91;5028276;28;20138;-57
2021/03/31 05:40:12;;;;;;;43.10;33.63;;;;;;;6.35;81.55;97240.31;5013872;28;20052;-58
2021/03/31 05:42:39;;;;;;;37.72;30.67;;;;;;;6.39;81.14;97238.94;5018613;28;20056;-58
2021/03/31 05:45:20;;;;;;;39.10;28.35;;;;;;;6.41;80.98;97239.53;5015285;28;20061;-60
2021/03/31 05:48:11;;;;;;;43.75;32.38;;;;;;;6.48;80.48;97247.44;5021532;28;20445;-58
2021/03/31 05:50:39;;;;;;;45.83;31.80;;;;;;;6.46;80.28;97242.38;5030607;28;20038;-58
2021/03/31 05:53:06;;;;;;;48.10;32.72;;;;;;;6.51;80.63;97243.59;5010802;28;20054;-58
2021/03/31 05:55:34;;;;;;;47.78;33.63;;;;;;;6.54;80.48;97240.59;5044746;28;20056;-58
2021/03/31 05:58:03;;;;;;;52.92;34.80;;;;;;;6.65;80.68;97247.88;5033390;28;20056;-58
2021/03/31 06:00:32;;;;;;;51.00;35.97;;;;;;;6.70;80.72;97240.25;5015754;28;20045;-58
2021/03/31 06:03:03;;;;;;;47.97;34.70;;;;;;;6.77;80.26;97241.06;5007375;28;20053;-58
2021/03/31 06:05:34;;;;;;;52.72;36.38;;;;;;;6.85;80.31;97244.50;5001552;28;20061;-58
2021/03/31 06:08:03;;;;;;;43.13;33.60;;;;;;;6.86;79.95;97249.56;5012991;28;20049;-58
2021/03/31 06:10:31;;;;;;;50.42;35.33;;;;;;;6.87;80.61;97245.09;5007902;28;20053;-58
2021/03/31 06:13:04;;;;;;;55.28;35.30;;;;;;;6.87;80.48;97245.94;5017333;28;20068;-58
2021/03/31 06:15:39;;;;;;;58.92;39.35;;;;;;;6.93;80.92;97247.75;5032645;28;20060;-58
2021/03/31 06:18:14;;;;;;;53.03;39.38;;;;;;;6.95;80.53;97244.13;5038660;28;20057;-59
2021/03/31 06:20:42;;;;;;;;;;;;;;;7.04;80.70;97246.38;5008039;28;20065;-58
2021/03/31 06:23:37;;;;;;;52.33;40.58;;;;;;;7.15;80.38;97238.91;5026207;28;19925;-58
2021/03/31 06:26:21;;;;;;;66.50;40.80;;;;;;;7.24;79.52;97245.56;4992244;28;20053;-58
2021/03/31 06:29:06;;;;;;;58.80;38.00;;;;;;;7.23;79.45;97225.56;5008239;28;20056;-58
2021/03/31 06:31:47;;;;;;;48.22;33.83;;;;;;;7.39;79.22;97235.69;4992733;28;20053;-58
2021/03/31 06:34:25;;;;;;;47.58;31.85;;;;;;;7.41;79.51;97230.22;5014386;28;20398;-57
2021/03/31 06:37:08;;;;;;;55.35;35.22;;;;;;;7.51;79.52;97232.44;5016873;28;20819;-59
2021/03/31 06:39:36;;;;;;;49.65;30.80;;;;;;;7.50;78.63;97230.81;5017240;28;20060;-59
2021/03/31 06:42:29;;;;;;;49.05;31.95;;;;;;;7.56;78.47;97230.03;5030688;28;20080;-58
2021/03/31 06:45:07;;;;;;;45.17;32.42;;;;;;;7.63;79.06;97233.44;5008381;28;20093;-58
2021/03/31 06:50:22;;;;;;;48.03;32.58;;;;;;;7.73;77.56;97232.22;5011619;28;20053;-58
2021/03/31 06:53:00;;;;;;;46.13;33.05;;;;;;;7.77;77.34;97226.34;5014765;28;20041;-59
2021/03/31 06:55:29;;;;;;;45.95;34.05;;;;;;;7.83;77.71;97227.34;5004974;28;20042;-59
2021/03/31 06:58:02;;;;;;;43.13;32.17;;;;;;;7.89;77.19;97226.53;5046393;28;20041;-59
2021/03/31 07:00:31;;;;;;;54.75;35.55;;;;;;;7.99;76.76;97223.47;5011664;28;20053;-59
2021/03/31 07:03:04;;;;;;;50.22;33.75;;;;;;;8.11;76.37;97218.38;5009676;28;20053;-58
2021/03/31 07:05:39;;;;;;;45.33;33.63;;;;;;;8.20;76.65;97214.50;5025183;28;20054;-57
2021/03/31 07:08:18;;;;;;;48.40;31.55;;;;;;;8.36;76.43;97223.75;5011761;28;20053;-57
2021/03/31 07:10:52;;;;;;;40.60;30.17;;;;;;;8.49;75.52;97228.19;5011176;28;20045;-58
2021/03/31 07:13:31;;;;;;;41.90;30.70;;;;;;;8.49;75.77;97219.50;5013592;28;20056;-57
2021/03/31 07:16:00;;;;;;;40.53;30.00;;;;;;;8.65;75.14;97224.25;5002356;28;20045;-57
2021/03/31 07:18:29;;;;;;;45.70;32.38;;;;;;;8.71;75.06;97226.03;5049819;28;20057;-57
2021/03/31 07:20:58;;;;;;;54.95;31.25;;;;;;;8.76;75.09;97220.16;5021288;28;20485;-58
2021/03/31 07:23:26;;;;;;;47.42;33.65;;;;;;;8.86;75.19;97217.84;5010824;28;21344;-57
2021/03/31 07:25:55;;;;;;;56.67;32.60;;;;;;;8.94;75.34;97214.16;5019663;28;20068;-57
2021/03/31 07:28:28;;;;;;;46.97;34.28;;;;;;;9.04;74.77;97218.97;5010257;28;20076;-57
2021/03/31 07:30:58;;;;;;;48.60;32.47;;;;;;;9.13;74.57;97216.84;5033784;28;20050;-58
2021/03/31 07:33:27;;;;;;;43.28;32.42;;;;;;;9.21;74.16;97214.78;5049169;28;20049;-58
2021/03/31 07:35:55;;;;;;;41.90;30.48;;;;;;;9.31;74.71;97216.94;5018555;28;20502;-58
2021/03/31 07:38:25;;;;;;;43.53;29.95;;;;;;;9.34;74.29;97210.44;5017363;28;20053;-58
2021/03/31 07:40:53;;;;;;;44.25;32.70;;;;;;;9.26;74.35;97215.97;5002081;28;20050;-58
2021/03/31 07:43:55;;;;;;;44.38;31.92;;;;;;;9.28;74.49;97209.47;5017723;28;20052;-57
2021/03/31 07:46:37;;;;;;;44.78;33.28;;;;;;;9.30;74.75;97209.22;5013919;28;20049;-58
2021/03/31 07:49:06;;;;;;;43.80;30.90;;;;;;;9.43;74.09;97209.13;5016592;28;20076;-58
2021/03/31 07:51:33;;;;;;;42.60;32.22;;;;;;;9.54;73.65;97212.88;5017660;28;20043;-57
2021/03/31 07:54:03;;;;;;;38.83;29.63;;;;;;;9.67;73.96;97214.59;5018337;28;20092;-56
2021/03/31 07:56:30;;;;;;;43.10;33.53;;;;;;;9.81;73.48;97216.06;5013655;28;20045;-56
2021/03/31 07:59:05;;;;;;;43.95;31.58;;;;;;;9.97;72.99;97211.25;4994604;28;20071;-57
2021/03/31 08:01:36;;;;;;;42.75;32.42;;;;;;;10.04;71.71;97216.47;5020833;28;20053;-61
2021/03/31 08:04:05;;;;;;;39.50;32.47;;;;;;;10.00;72.14;97214.25;5016065;28;20053;-56
2021/03/31 08:06:37;;;;;;;41.63;34.30;;;;;;;10.04;72.39;97214.59;5019377;28;20052;-56
2021/03/31 08:09:08;;;;;;;45.78;34.40;;;;;;;10.15;71.76;97200.69;5015438;28;20045;-57
2021/03/31 08:11:38;;;;;;;46.03;35.80;;;;;;;10.14;71.60;97201.75;5033430;28;20053;-57
2021/03/31 08:14:15;;;;;;;46.60;32.72;;;;;;;10.14;72.13;97201.75;5018422;28;20034;-57
2021/03/31 08:16:45;;;;;;;45.92;34.95;;;;;;;10.04;72.59;97198.78;5016869;28;20045;-62
2021/03/31 08:19:25;;;;;;;47.60;35.35;;;;;;;9.85;73.12;97193.53;5030580;28;20521;-56
2021/03/31 08:21:53;;;;;;;47.30;39.40;;;;;;;9.85;73.56;97195.34;5011005;28;20462;-57
2021/03/31 08:24:46;;;;;;;49.60;38.35;;;;;;;9.85;74.37;97192.72;5031953;28;20049;-55
2021/03/31 08:27:14;;;;;;;50.58;36.78;;;;;;;9.90;73.20;97186.81;5019546;28;20489;-56
2021/03/31 08:29:42;;;;;;;45.50;37.22;;;;;;;9.98;73.47;97182.03;5021704;28;20053;-59
2021/03/31 08:32:11;;;;;;;45.88;35.15;;;;;;;10.04;73.42;97182.97;5021058;28;20060;-56
2021/03/31 08:34:39;;;;;;;48.45;34.47;;;;;;;10.12;73.42;97181.88;5035619;28;20068;-56
2021/03/31 08:37:19;;;;;;;47.53;33.92;;;;;;;10.24;73.22;97174.03;5032626;28;20045;-56
2021/03/31 08:39:46;;;;;;;46.45;36.33;;;;;;;10.33;72.92;97164.00;5018199;28;20067;-56
2021/03/31 08:42:14;;;;;;;42.40;33.65;;;;;;;10.42;72.75;97171.38;5021374;28;20068;-57
2021/03/31 08:44:48;;;;;;;45.80;34.53;;;;;;;10.52;72.44;97162.94;5046220;28;20068;-57
2021/03/31 08:47:18;;;;;;;38.33;31.23;;;;;;;10.72;72.20;97164.47;5049361;28;20056;-57
2021/03/31 08:49:51;;;;;;;39.97;33.50;;;;;;;10.89;72.01;97162.03;5016882;28;20040;-57
2021/03/31 08:52:24;;;;;;;39.45;32.30;;;;;;;10.94;71.61;97148.94;5051229;28;20802;-57
2021/03/31 08:54:53;;;;;;;46.47;32.05;;;;;;;11.15;70.94;97149.41;5016306;28;20053;-57
2021/03/31 08:57:22;;;;;;;40.17;31.83;;;;;;;11.28;70.61;97151.81;5032763;28;20053;-56
2021/03/31 08:59:56;;;;;;;39.47;31.48;;;;;;;11.39;70.72;97147.59;5033005;28;21232;-57
2021/03/31 09:02:26;;;;;;;40.58;27.92;;;;;;;11.51;69.94;97135.19;5019547;28;20041;-56
2021/03/31 09:05:03;;;;;;;38.65;28.98;;;;;;;11.57;69.09;97130.81;5021706;28;20050;-56
2021/03/31 09:07:32;;;;;;;43.20;30.90;;;;;;;11.71;69.15;97135.84;5017744;28;20515;-57
2021/03/31 09:10:00;;;;;;;40.08;28.92;;;;;;;11.85;69.12;97126.63;5019803;28;20049;-57
2021/03/31 09:12:29;;;;;;;39.13;29.40;;;;;;;11.97;68.33;97119.47;5035474;28;20042;-56
2021/03/31 09:15:02;;;;;;;33.22;28.02;;;;;;;12.12;68.25;97112.91;5011620;28;20067;-57
2021/03/31 09:17:31;;;;;;;38.15;28.05;;;;;;;12.21;68.00;97106.19;5016346;28;20055;-57
2021/03/31 09:20:09;;;;;;;33.20;28.52;;;;;;;12.41;67.95;97110.22;5017161;28;20041;-57
2021/03/31 09:22:37;;;;;;;34.55;28.27;;;;;;;12.56;66.87;97105.22;5051025;28;20045;-57
2021/03/31 09:25:09;;;;;;;35.90;28.65;;;;;;;12.66;66.64;97104.59;5001661;28;20544;-57
2021/03/31 09:27:56;;;;;;;63.63;41.38;;;;;;;12.81;66.40;97106.69;5018901;28;20513;-57
2021/03/31 09:30:24;;;;;;;34.65;27.60;;;;;;;12.91;66.20;97093.59;5014776;28;20052;-56
2021/03/31 09:33:02;;;;;;;29.85;26.60;;;;;;;13.07;65.70;97088.53;5048061;28;20060;-57
2021/03/31 09:35:32;;;;;;;35.97;28.23;;;;;;;13.23;64.52;97090.34;5005870;28;20084;-57
2021/03/31 09:38:03;;;;;;;30.70;23.90;;;;;;;13.34;64.05;97086.00;5016854;28;20068;-56
2021/03/31 09:40:37;;;;;;;35.25;25.92;;;;;;;13.49;64.33;97084.63;5004476;28;20061;-57
2021/03/31 09:43:10;;;;;;;33.08;26.13;;;;;;;13.68;64.09;97087.78;5012714;28;20053;-58
2021/03/31 09:45:40;;;;;;;32.30;25.15;;;;;;;13.74;63.59;97086.78;5010665;28;20055;-57
2021/03/31 09:48:08;;;;;;;33.70;26.80;;;;;;;13.84;62.16;97080.81;5015533;28;20053;-57
2021/03/31 09:50:39;;;;;;;30.80;25.58;;;;;;;13.92;62.75;97072.41;5018169;28;20314;-58
2021/03/31 09:53:07;;;;;;;35.08;26.38;;;;;;;14.02;63.15;97074.38;5031159;28;20053;-57
2021/03/31 09:55:37;;;;;;;28.98;23.48;;;;;;;14.11;62.37;97062.25;5011322;28;20052;-57
2021/03/31 09:58:05;;;;;;;33.33;24.83;;;;;;;14.23;62.38;97061.31;5016384;28;20041;-60
2021/03/31 10:00:40;;;;;;;36.00;26.02;;;;;;;14.39;62.53;97049.00;5006606;28;20042;-59
2021/03/31 10:03:09;;;;;;;32.15;24.27;;;;;;;14.48;62.15;97051.97;5016321;28;20048;-56
2021/03/31 10:05:37;;;;;;;33.90;28.40;;;;;;;14.59;61.66;97046.53;5009839;28;20616;-57
2021/03/31 10:08:09;;;;;;;35.47;24.48;;;;;;;14.78;60.76;97043.47;5014478;28;20049;-58
2021/03/31 10:10:46;;;;;;;35.55;24.92;;;;;;;14.93;61.39;97040.16;5018382;28;20824;-57
2021/03/31 10:13:36;;;;;;;33.75;27.88;;;;;;;15.09;59.93;97035.72;5019106;28;20041;-57
2021/03/31 10:16:07;;;;;;;30.42;24.45;;;;;;;15.21;60.63;97027.53;5020058;28;20049;-57
2021/03/31 10:18:35;;;;;;;31.25;23.23;;;;;;;15.32;59.32;97020.44;5014123;28;20048;-57
2021/03/31 10:21:04;;;;;;;32.33;22.48;;;;;;;15.53;59.32;97019.44;5019131;28;20045;-58
2021/03/31 10:23:34;;;;;;;28.25;23.77;;;;;;;15.65;59.36;97016.59;5015162;28;20390;-58
2021/03/31 10:26:31;;;;;;;30.30;22.80;;;;;;;15.83;59.41;97017.97;5024148;28;20056;-58
2021/03/31 10:29:23;;;;;;;30.05;23.40;;;;;;;16.03;58.74;97016.44;5013084;28;21158;-58
2021/03/31 10:32:14;;;;;;;25.55;19.52;;;;;;;16.22;57.47;97005.28;5009327;28;20045;-57
2021/03/31 10:34:43;;;;;;;26.20;18.98;;;;;;;16.34;56.64;97007.69;5011327;28;20056;-58
2021/03/31 10:51:34;;;;;;;18.45;14.70;;;;;;;17.17;53.96;96979.09;5012436;28;20045;-57
2021/03/31 10:54:08;;;;;;;;;;;;;;;17.36;53.47;96976.63;5014131;28;20064;-57
2021/03/31 10:56:37;;;;;;;17.58;11.90;;;;;;;17.52;53.78;96964.81;5008583;28;19925;-56
2021/03/31 10:59:05;;;;;;;17.50;11.80;;;;;;;17.73;54.03;96964.69;5041080;28;20057;-56
2021/03/31 11:01:33;;;;;;;16.98;9.32;;;;;;;17.91;52.27;96957.09;5011188;28;20693;-56
2021/03/31 11:04:00;;;;;;;8.98;7.68;;;;;;;18.04;50.64;96953.84;5011927;28;20053;-57
2021/03/31 11:06:30;;;;;;;10.35;7.65;;;;;;;18.10;50.29;96954.59;5017699;28;20068;-57
2021/03/31 11:08:58;;;;;;;8.60;6.15;;;;;;;18.19;50.32;96944.13;5009581;28;20049;-57
2021/03/31 11:11:25;;;;;;;10.48;6.60;;;;;;;18.28;49.15;96942.44;5011313;28;20626;-57
2021/03/31 11:13:53;;;;;;;12.52;7.22;;;;;;;18.41;50.06;96928.44;5016032;28;20049;-57
2021/03/31 11:16:20;;;;;;;6.32;5.72;;;;;;;18.53;46.73;96927.25;5004803;28;20050;-57
2021/03/31 11:26:43;;;;;;;4.78;4.20;;;;;;;18.72;46.95;96908.63;5014489;28;20057;-57
2021/03/31 11:29:10;;;;;;;5.85;4.35;;;;;;;18.81;47.69;96906.94;5010576;28;20056;-56
2021/03/31 11:31:40;;;;;;;6.70;4.55;;;;;;;19.01;47.36;96903.28;5029728;28;20064;-57
2021/03/31 11:34:07;;;;;;;7.35;4.57;;;;;;;19.14;47.09;96899.09;5013654;28;20996;-57
2021/03/31 11:36:35;;;;;;;4.97;3.92;;;;;;;19.24;45.53;96900.84;5030671;28;20053;-57
2021/03/31 11:39:03;;;;;;;5.40;3.60;;;;;;;19.36;46.72;96895.88;5013458;28;20052;-57
2021/03/31 11:41:31;;;;;;;6.53;3.15;;;;;;;19.50;45.60;96895.94;5017817;28;20045;-57
2021/03/31 11:43:58;;;;;;;6.13;3.63;;;;;;;19.63;44.31;96880.25;5018289;28;20041;-57
2021/03/31 11:46:25;;;;;;;4.63;2.45;;;;;;;19.69;43.23;96876.41;5048040;28;20052;-57
2021/03/31 11:48:53;;;;;;;5.90;3.53;;;;;;;19.76;43.55;96881.38;5011899;28;20520;-57
2021/03/31 11:51:20;;;;;;;6.35;3.42;;;;;;;19.82;43.33;96869.53;5010954;28;20049;-56
2021/03/31 11:53:47;;;;;;;9.07;3.42;;;;;;;19.87;43.38;96872.16;4995248;28;20064;-56
2021/03/31 11:56:15;;;;;;;7.65;3.47;;;;;;;19.91;43.80;96873.16;5011882;28;20494;-56
2021/03/31 11:58:42;;;;;;;3.55;2.60;;;;;;;20.04;43.57;96862.75;5008075;28;20068;-57
2021/03/31 12:01:09;;;;;;;5.40;2.78;;;;;;;20.19;42.46;96867.88;5026565;28;20049;-57
2021/03/31 12:03:37;;;;;;;6.78;2.92;;;;;;;20.32;42.49;96868.19;5016569;28;20464;-57
2021/03/31 12:06:05;;;;;;;6.68;2.85;;;;;;;20.37;41.46;96862.75;5015175;28;20050;-57